Time;durP1;ratioP1;P1;durP2;ratioP2;P2;SDS_P1;SDS_P2;PMS_P1;PMS_P2;Temp;Humidity;BMP_temperature;BMP_pressure;BME280_temperature;BME280_humidity;BME280_pressure;Samples;Min_cycle;Max_cycle;Signal;HPM_P1;HPM_P2
2023/07/20 00:01:58;;;;;;;;;3.00;2.33;;;;;23.09;47.56;101251.47;4952813;28;45476;-72
2023/07/20 00:04:23;;;;;;;;;6.33;5.00;;;;;22.95;47.83;101243.16;4941106;28;45537;-71
2023/07/20 00:06:49;;;;;;;;;4.67;4.33;;;;;23.02;47.84;101256.19;4957275;28;45444;-74
2023/07/20 00:09:14;;;;;;;;;7.00;5.00;;;;;23.03;47.66;101254.41;4957661;28;45591;-71
2023/07/20 00:11:48;;;;;;;;;3.33;2.33;;;;;22.90;48.34;101251.34;4958733;28;45390;-70
2023/07/20 00:14:13;;;;;;;;;4.33;3.33;;;;;22.89;47.93;101256.75;4957300;28;46115;-72
2023/07/20 00:16:42;;;;;;;;;4.33;4.33;;;;;22.92;47.71;101264.63;4956604;28;45401;-70
2023/07/20 00:19:08;;;;;;;;;3.67;3.67;;;;;23.00;48.21;101257.19;4956994;28;45779;-71
2023/07/20 00:21:33;;;;;;;;;5.67;4.67;;;;;23.00;47.87;101255.41;4957034;28;45952;-70
2023/07/20 00:23:59;;;;;;;;;2.33;2.33;;;;;22.75;47.88;101212.75;4956957;28;45702;-71
2023/07/20 00:26:25;;;;;;;;;8.00;5.00;;;;;23.04;47.76;101258.78;4957500;28;45486;-70
2023/07/20 00:28:51;;;;;;;;;5.00;5.00;;;;;23.09;47.56;101259.50;4973466;28;45418;-70
2023/07/20 00:31:17;;;;;;;;;5.67;4.33;;;;;23.03;47.55;101241.91;4958196;28;45794;-69
2023/07/20 00:33:42;;;;;;;;;6.33;5.00;;;;;23.12;47.63;101250.47;4956692;28;46118;-71
2023/07/20 00:36:08;;;;;;;;;5.00;5.00;;;;;23.13;47.47;101261.06;4972302;28;45347;-70
2023/07/20 00:38:33;;;;;;;;;4.00;4.00;;;;;22.97;47.55;101226.13;4956872;28;45763;-70
2023/07/20 00:40:59;;;;;;;;;3.00;3.00;;;;;23.07;47.52;101251.53;4958127;28;45515;-69
2023/07/20 00:43:24;;;;;;;;;4.67;4.67;;;;;22.98;47.22;101227.88;4956845;28;45935;-74
2023/07/20 00:45:50;;;;;;;;;5.00;5.00;;;;;23.07;47.97;101245.31;4955446;28;45656;-71
2023/07/20 00:48:16;;;;;;;;;5.33;4.00;;;;;22.97;48.23;101234.13;4946266;28;45583;-69
2023/07/20 00:50:42;;;;;;;;;4.00;4.00;;;;;22.91;48.55;101257.53;4957020;28;45530;-70
2023/07/20 00:53:08;;;;;;;;;5.00;5.00;;;;;22.78;48.38;101233.13;4956685;28;45415;-70
2023/07/20 00:55:35;;;;;;;;;5.00;3.00;;;;;22.85;48.37;101238.19;4959939;28;45395;-70
2023/07/20 00:58:01;;;;;;;;;7.67;6.00;;;;;22.92;48.30;101253.94;4961379;28;45453;-69
2023/07/20 01:00:27;;;;;;;;;5.00;3.67;;;;;22.91;48.56;101252.22;4962157;28;45326;-69
2023/07/20 01:02:53;;;;;;;;;4.33;4.33;;;;;22.79;49.04;101246.44;4961655;28;45613;-71
2023/07/20 01:05:26;;;;;;;;;6.67;4.33;;;;;22.63;49.60;101253.31;4962379;28;45511;-70
2023/07/20 01:07:52;;;;;;;;;4.67;4.00;;;;;22.65;49.17;101254.13;4961893;28;45357;-70
2023/07/20 01:10:25;;;;;;;;;4.00;4.00;;;;;22.70;49.02;101244.13;4961816;28;45392;-70
2023/07/20 01:12:52;;;;;;;;;6.33;6.00;;;;;22.56;49.28;101236.66;4960433;28;46769;-69
2023/07/20 01:15:18;;;;;;;;;5.67;4.00;;;;;22.58;49.41;101245.50;4960390;28;45571;-70
2023/07/20 01:17:44;;;;;;;;;6.33;4.67;;;;;22.62;49.47;101244.44;4960074;28;45464;-69
2023/07/20 01:20:13;;;;;;;;;5.00;4.67;;;;;22.60;49.41;101232.09;4959800;28;45338;-69
2023/07/20 01:22:44;;;;;;;;;4.00;4.00;;;;;22.66;49.21;101242.53;4959920;28;46720;-70
2023/07/20 01:25:47;;;;;;;;;5.00;4.33;;;;;22.70;49.17;101240.59;4959651;28;45499;-70
2023/07/20 01:28:28;;;;;;;;;5.00;4.67;;;;;22.73;49.23;101240.47;4959570;28;45502;-70
2023/07/20 01:31:20;;;;;;;;;4.33;4.33;;;;;22.58;49.97;101240.16;4960097;28;45358;-70
2023/07/20 01:33:48;;;;;;;;;6.00;6.00;;;;;22.43;50.10;101236.31;4959057;28;45521;-68
2023/07/20 01:36:16;;;;;;;;;4.33;3.33;;;;;22.47;50.13;101238.84;4947903;28;45264;-68
2023/07/20 01:38:42;;;;;;;;;7.33;5.67;;;;;22.40;49.85;101220.41;4957128;28;45360;-70
2023/07/20 01:41:08;;;;;;;;;5.00;5.00;;;;;22.36;50.52;101234.81;4960116;28;45346;-70
2023/07/20 01:43:34;;;;;;;;;5.67;5.67;;;;;22.29;50.08;101216.44;4959815;28;46342;-69
2023/07/20 01:46:00;;;;;;;;;5.33;4.00;;;;;22.39;50.02;101229.34;4972279;28;45426;-69
2023/07/20 01:48:25;;;;;;;;;4.00;3.67;;;;;22.48;49.87;101238.78;4949232;28;45514;-69
2023/07/20 01:50:51;;;;;;;;;8.33;5.33;;;;;22.53;49.74;101231.47;4959643;28;45356;-69
2023/07/20 01:53:16;;;;;;;;;4.00;3.67;;;;;22.55;49.85;101234.94;4960302;28;45350;-71
2023/07/20 01:55:42;;;;;;;;;3.33;3.33;;;;;22.54;49.52;101217.19;4960407;28;45330;-69
2023/07/20 01:58:08;;;;;;;;;4.00;4.00;;;;;22.48;49.61;101203.22;4959033;28;45506;-70
2023/07/20 02:00:34;;;;;;;;;4.00;3.00;;;;;22.52;50.10;101220.84;4958144;28;45574;-70
2023/07/20 02:02:59;;;;;;;;;4.00;4.00;;;;;22.18;51.14;101200.78;4962004;28;46148;-70
2023/07/20 02:05:25;;;;;;;;;4.00;4.00;;;;;22.20;51.02;101225.63;4958568;28;45483;-70
2023/07/20 02:07:51;;;;;;;;;5.67;4.33;;;;;22.21;50.74;101209.59;4959314;28;45476;-74
2023/07/20 02:10:17;;;;;;;;;5.33;4.67;;;;;22.30;50.48;101219.03;4974580;28;45530;-74
2023/07/20 02:12:42;;;;;;;;;5.67;3.00;;;;;22.37;50.62;101212.50;4958845;28;46966;-75
2023/07/20 02:15:08;;;;;;;;;3.67;3.00;;;;;22.22;51.28;101208.66;4960485;28;45552;-72
2023/07/20 02:17:34;;;;;;;;;4.33;4.00;;;;;22.17;50.86;101207.06;4960823;28;45515;-69
2023/07/20 02:19:59;;;;;;;;;3.67;2.67;;;;;22.19;50.77;101211.41;4957499;28;45492;-69
2023/07/20 02:22:25;;;;;;;;;4.00;4.00;;;;;22.14;50.60;101196.50;4959143;28;45442;-70
2023/07/20 02:24:51;;;;;;;;;3.00;3.00;;;;;22.23;50.79;101214.84;4959145;28;45643;-68
2023/07/20 02:27:16;;;;;;;;;4.00;3.33;;;;;22.17;50.60;101221.28;4972311;28;45435;-69
2023/07/20 02:29:42;;;;;;;;;6.00;3.00;;;;;22.04;51.11;101214.66;4945580;28;45767;-68
2023/07/20 02:32:09;;;;;;;;;4.00;4.00;;;;;22.00;50.94;101213.06;4959083;28;46283;-70
2023/07/20 02:34:35;;;;;;;;;4.00;4.00;;;;;22.04;51.22;101214.66;4959938;28;46391;-67
2023/07/20 02:37:01;;;;;;;;;5.00;5.00;;;;;21.87;51.62;101201.09;4953790;28;45416;-67
2023/07/20 02:39:28;;;;;;;;;5.00;4.00;;;;;21.79;51.91;101217.41;4952926;28;45524;-69
2023/07/20 02:41:54;;;;;;;;;5.00;3.33;;;;;21.78;52.09;101212.97;4958838;28;45874;-65
2023/07/20 02:44:19;;;;;;;;;7.33;3.00;;;;;21.76;51.86;101223.72;4959438;28;45360;-66
2023/07/20 02:46:45;;;;;;;;;4.33;4.00;;;;;21.76;51.81;101218.38;4959359;28;45421;-66
2023/07/20 02:49:10;;;;;;;;;5.00;5.00;;;;;21.76;52.15;101221.06;4957680;28;45405;-66
2023/07/20 02:51:36;;;;;;;;;6.00;4.00;;;;;21.69;52.28;101221.31;4958580;28;45477;-67
2023/07/20 02:54:03;;;;;;;;;5.00;5.00;;;;;21.69;52.22;101227.53;4952576;28;45477;-69
2023/07/20 02:56:28;;;;;;;;;5.00;5.00;;;;;21.74;51.97;101222.03;4952268;28;45425;-67
2023/07/20 02:58:54;;;;;;;;;5.33;4.33;;;;;21.54;52.56;101202.28;4958695;28;45500;-67
2023/07/20 03:01:20;;;;;;;;;3.33;3.33;;;;;21.56;52.88;101227.09;4958005;28;46129;-65
2023/07/20 03:03:46;;;;;;;;;5.67;4.33;;;;;21.58;52.58;101227.03;4958198;28;45460;-67
2023/07/20 03:06:15;;;;;;;;;4.33;2.00;;;;;21.62;52.63;101227.78;4959174;28;45563;-73
2023/07/20 03:08:45;;;;;;;;;4.00;4.00;;;;;21.62;52.59;101225.13;4960002;28;45498;-68
2023/07/20 03:11:11;;;;;;;;;5.67;4.67;;;;;21.71;52.34;101216.78;4959412;28;45591;-67
2023/07/20 03:13:36;;;;;;;;;4.67;4.67;;;;;21.69;52.06;101206.22;4960535;28;45420;-73
2023/07/20 03:16:02;;;;;;;;;2.33;2.33;;;;;21.79;52.25;101214.72;4959792;28;45451;-76
2023/07/20 03:18:27;;;;;;;;;5.00;4.00;;;;;21.72;51.86;101200.75;4957803;28;45363;-75
2023/07/20 03:20:53;;;;;;;;;2.00;1.67;;;;;21.83;52.06;101210.13;4956907;28;47590;-69
2023/07/20 03:23:18;;;;;;;;;5.00;5.00;;;;;21.77;52.14;101216.56;4958197;28;45362;-77
2023/07/20 03:25:44;;;;;;;;;5.00;4.00;;;;;21.67;52.40;101208.06;4957831;28;45959;-75
2023/07/20 03:28:10;;;;;;;;;3.67;3.00;;;;;21.73;51.98;101223.81;4951953;28;45864;-70
2023/07/20 03:30:35;;;;;;;;;5.00;4.00;;;;;21.76;52.40;101221.06;4951070;28;45464;-77
2023/07/20 03:33:03;;;;;;;;;5.00;4.00;;;;;21.78;52.21;101219.19;4958667;28;45511;-72
2023/07/20 03:35:28;;;;;;;;;5.00;4.33;;;;;21.74;52.39;101214.03;4974746;28;45317;-72
2023/07/20 03:37:57;;;;;;;;;3.00;3.00;;;;;21.56;52.46;101187.09;4971903;28;45393;-71
2023/07/20 03:40:23;;;;;;;;;5.33;5.00;;;;;21.77;52.48;101224.56;4956254;28;47444;-67
2023/07/20 03:42:49;;;;;;;;;4.33;4.00;;;;;21.71;52.44;101219.47;4957446;28;45431;-67
2023/07/20 03:45:15;;;;;;;;;5.33;4.67;;;;;21.63;53.14;101226.88;4959195;28;45360;-68
2023/07/20 03:47:40;;;;;;;;;4.00;4.00;;;;;21.44;53.71;101221.34;4958841;28;45278;-67
2023/07/20 03:50:06;;;;;;;;;5.33;4.00;;;;;21.44;53.61;101216.00;4958497;28;45652;-68
2023/07/20 03:52:32;;;;;;;;;6.67;5.00;;;;;21.47;53.56;101229.22;4957385;28;45420;-67
2023/07/20 03:54:57;;;;;;;;;4.67;4.00;;;;;21.35;54.12;101219.81;4957626;28;45452;-69
2023/07/20 03:57:23;;;;;;;;;4.00;4.00;;;;;21.38;54.12;101219.75;4957577;28;45239;-65
2023/07/20 03:59:49;;;;;;;;;7.67;5.00;;;;;21.53;53.54;101218.34;4957201;28;46138;-67
2023/07/20 04:02:14;;;;;;;;;4.33;4.33;;;;;21.52;53.50;101216.59;4957188;28;45367;-64
2023/07/20 04:04:40;;;;;;;;;6.00;3.67;;;;;21.57;53.19;101218.19;4956007;28;45387;-65
2023/07/20 04:07:07;;;;;;;;;4.67;4.00;;;;;21.34;53.98;101196.78;4958086;28;45423;-67
2023/07/20 04:09:33;;;;;;;;;5.67;5.00;;;;;21.41;53.88;101213.47;4957039;28;45884;-66
2023/07/20 04:11:58;;;;;;;;;4.33;4.00;;;;;21.45;53.54;101202.63;4957731;28;45467;-66
2023/07/20 04:14:24;;;;;;;;;4.33;4.00;;;;;21.60;53.32;101207.41;4957977;28;45831;-67
2023/07/20 04:16:51;;;;;;;;;5.00;4.00;;;;;21.61;53.32;101210.94;4967408;28;45510;-66
2023/07/20 04:19:17;;;;;;;;;8.33;3.33;;;;;21.54;53.69;101215.59;4955740;28;48256;-64
2023/07/20 04:21:43;;;;;;;;;7.00;4.33;;;;;21.52;53.78;101198.84;4958587;28;45405;-68
2023/07/20 04:24:11;;;;;;;;;5.00;4.00;;;;;21.74;53.34;101211.38;4958641;28;45504;-68
2023/07/20 04:26:37;;;;;;;;;6.67;4.67;;;;;21.85;52.71;101205.63;4957960;28;45343;-68
2023/07/20 04:29:04;;;;;;;;;9.00;7.00;;;;;21.79;52.78;101191.59;4947679;28;46028;-68
2023/07/20 04:31:32;;;;;;;;;10.33;6.00;;;;;21.93;52.69;101207.09;4962658;28;45408;-67
2023/07/20 04:33:57;;;;;;;;;8.00;6.00;;;;;21.95;52.85;101205.22;4971419;28;45371;-66
2023/07/20 04:36:23;;;;;;;;;5.67;4.33;;;;;21.97;52.55;101200.72;4962622;28;45422;-66
2023/07/20 04:38:51;;;;;;;;;4.00;4.00;;;;;22.08;52.34;101207.41;4976388;28;46988;-70
2023/07/20 04:41:20;;;;;;;;;5.67;4.67;;;;;22.13;52.33;101208.97;4964816;28;45318;-71
2023/07/20 04:43:46;;;;;;;;;4.00;3.67;;;;;22.17;51.94;101207.06;4963697;28;45502;-66
2023/07/20 04:46:11;;;;;;;;;6.67;5.33;;;;;22.16;51.89;101191.97;4960927;28;45318;-67
2023/07/20 04:48:40;;;;;;;;;4.33;4.33;;;;;22.03;51.82;101162.25;4955430;28;45945;-70
2023/07/20 04:51:06;;;;;;;;;3.00;3.00;;;;;22.33;51.97;101207.34;4942880;28;45409;-66
2023/07/20 04:53:36;;;;;;;;;4.00;4.00;;;;;22.30;51.71;101192.34;4978786;28;45361;-75
2023/07/20 04:56:04;;;;;;;;;3.67;2.67;;;;;22.32;51.55;101195.81;4973004;28;45487;-66
2023/07/20 04:58:42;;;;;;;;;4.33;2.67;;;;;22.45;51.50;101204.22;4967150;28;45266;-72
2023/07/20 05:01:08;;;;;;;;;5.67;3.00;;;;;22.49;51.46;101207.63;4965098;28;45506;-68
2023/07/20 05:03:34;;;;;;;;;3.33;3.33;;;;;22.53;51.55;101209.25;4966787;28;45470;-66
2023/07/20 05:05:59;;;;;;;;;4.00;3.00;;;;;22.52;51.45;101203.03;4963225;28;46059;-66
2023/07/20 05:08:26;;;;;;;;;5.67;3.67;;;;;22.60;51.29;101206.25;4958410;28;46225;-71
2023/07/20 05:10:53;;;;;;;;;4.00;3.67;;;;;22.61;51.49;101215.13;4951235;28;45816;-74
2023/07/20 05:13:20;;;;;;;;;5.00;2.33;;;;;22.61;51.42;101209.78;4967101;28;45444;-70
2023/07/20 05:15:46;;;;;;;;;3.67;3.33;;;;;22.60;51.67;101213.41;4965049;28;45663;-69
2023/07/20 05:18:12;;;;;;;;;4.00;3.00;;;;;22.63;51.79;101213.28;4971747;28;46017;-67
2023/07/20 05:20:38;;;;;;;;;5.00;4.00;;;;;22.63;51.68;101211.47;4962388;28;45488;-68
2023/07/20 05:23:04;;;;;;;;;7.00;5.00;;;;;22.60;51.73;101208.94;4960687;28;45429;-67
2023/07/20 05:25:31;;;;;;;;;5.67;5.00;;;;;22.65;51.39;101211.41;4960342;28;45389;-67
2023/07/20 05:27:56;;;;;;;;;7.33;4.00;;;;;22.75;51.38;101217.25;4959941;28;45500;-67
2023/07/20 05:30:22;;;;;;;;;4.67;4.00;;;;;22.69;51.51;101213.03;4949682;28;45565;-66
2023/07/20 05:32:50;;;;;;;;;4.00;4.00;;;;;22.83;51.04;101226.69;4967042;28;45556;-66
2023/07/20 05:35:21;;;;;;;;;5.33;4.00;;;;;22.75;50.76;101196.75;4973229;28;45296;-74
2023/07/20 05:37:46;;;;;;;;;5.67;4.33;;;;;22.73;50.74;101187.94;4956352;28;46189;-71
2023/07/20 05:40:14;;;;;;;;;2.67;2.67;;;;;23.03;50.29;101231.22;4955937;28;45911;-70
2023/07/20 05:42:51;;;;;;;;;3.00;3.00;;;;;23.10;50.24;101215.78;4961272;28;45481;-70
2023/07/20 05:45:18;;;;;;;;;3.33;1.67;;;;;23.18;50.16;101229.72;4966177;28;45547;-67
2023/07/20 05:47:43;;;;;;;;;3.67;3.67;;;;;23.23;50.16;101225.03;4959367;28;45573;-66
2023/07/20 05:50:10;;;;;;;;;1.67;1.67;;;;;23.28;49.85;101225.69;4959643;28;45314;-67
2023/07/20 05:52:48;;;;;;;;;7.67;5.00;;;;;23.31;49.57;101221.16;4950353;28;45446;-70
2023/07/20 05:55:13;;;;;;;;;3.00;3.00;;;;;23.32;49.40;101204.19;4959268;28;45206;-70
2023/07/20 05:57:43;;;;;;;;;2.00;2.00;;;;;23.40;49.46;101212.75;4958552;28;46641;-66
2023/07/20 06:00:13;;;;;;;;;2.00;2.00;;;;;23.33;49.66;101201.44;4959662;28;46334;-66
2023/07/20 06:02:39;;;;;;;;;4.00;4.00;;;;;23.45;49.43;101210.75;4959889;28;45512;-66
2023/07/20 06:05:09;;;;;;;;;2.33;2.33;;;;;23.50;49.36;101214.06;4959603;28;45461;-67
2023/07/20 06:07:38;;;;;;;;;3.00;3.00;;;;;23.55;49.16;101211.19;4959516;28;45456;-69
2023/07/20 06:10:05;;;;;;;;;3.67;2.33;;;;;23.64;49.09;101210.78;4960085;28;45496;-68
2023/07/20 06:12:32;;;;;;;;;2.67;1.33;;;;;23.66;48.69;101211.59;4959962;28;45717;-68
2023/07/20 06:14:58;;;;;;;;;4.67;2.00;;;;;23.71;48.89;101206.91;4957928;28;45802;-67
2023/07/20 06:17:23;;;;;;;;;2.67;2.67;;;;;23.75;48.51;101207.63;4958909;28;45995;-66
2023/07/20 06:19:49;;;;;;;;;3.33;3.33;;;;;23.81;48.36;101210.91;4958424;28;45407;-68
2023/07/20 06:22:15;;;;;;;;;4.00;3.00;;;;;23.84;48.46;101202.72;4957402;28;45465;-68
2023/07/20 06:24:41;;;;;;;;;5.00;3.00;;;;;23.89;48.34;101216.78;4958935;28;45510;-68
2023/07/20 06:27:06;;;;;;;;;3.33;3.33;;;;;23.86;48.08;101195.50;4959108;28;46630;-68
2023/07/20 06:29:32;;;;;;;;;5.00;4.33;;;;;24.00;48.22;101212.75;4945095;28;45432;-66
2023/07/20 06:31:57;;;;;;;;;4.33;4.33;;;;;24.03;48.28;101220.63;4958829;28;45417;-68
2023/07/20 06:34:23;;;;;;;;;5.00;3.00;;;;;24.07;47.91;101214.19;4959090;28;45552;-67
2023/07/20 06:36:51;;;;;;;;;2.67;2.67;;;;;24.13;47.69;101211.22;4960313;28;46093;-66
2023/07/20 06:39:17;;;;;;;;;3.33;2.33;;;;;24.12;47.83;101186.25;4959225;28;45326;-67
2023/07/20 06:41:42;;;;;;;;;5.25;3.75;;;;;24.20;47.71;101190.38;4959674;28;45489;-68
2023/07/20 06:44:08;;;;;;;;;3.00;3.00;;;;;24.30;47.01;101192.56;4959941;28;45508;-70
2023/07/20 06:46:33;;;;;;;;;3.00;2.00;;;;;24.38;47.06;101196.69;4958667;28;46065;-65
2023/07/20 06:48:59;;;;;;;;;3.00;3.00;;;;;24.46;47.31;101203.41;4958595;28;45507;-67
2023/07/20 06:51:24;;;;;;;;;4.00;4.00;;;;;24.46;47.08;101202.50;4958860;28;45306;-68
2023/07/20 06:53:50;;;;;;;;;3.75;3.75;;;;;24.45;46.81;101198.97;4966787;28;45448;-71
2023/07/20 06:56:15;;;;;;;;;6.00;3.25;;;;;24.54;46.76;101211.94;4956853;28;46259;-70
2023/07/20 06:58:41;;;;;;;;;3.00;3.00;;;;;24.53;46.35;101204.84;4960661;28;45817;-69
2023/07/20 07:01:08;;;;;;;;;4.75;3.25;;;;;24.60;46.78;101202.72;4959748;28;45620;-65
2023/07/20 07:03:34;;;;;;;;;3.25;3.25;;;;;24.51;46.61;101188.00;4954637;28;45516;-68
2023/07/20 07:06:00;;;;;;;;;5.33;5.33;;;;;24.61;46.44;101198.28;4952023;28;46123;-64
2023/07/20 07:08:26;;;;;;;;;4.33;3.67;;;;;24.65;46.63;101199.81;4942880;28;45699;-69
2023/07/20 07:10:52;;;;;;;;;3.75;3.75;;;;;24.66;46.28;101196.22;4957442;28;45500;-68
2023/07/20 07:13:19;;;;;;;;;5.67;3.00;;;;;24.58;46.26;101174.28;4944667;28;45358;-69
2023/07/20 07:15:45;;;;;;;;;4.67;4.67;;;;;24.69;46.20;101180.00;4955093;28;45569;-69
2023/07/20 07:18:11;;;;;;;;;4.25;4.25;;;;;24.69;46.13;101186.22;4957994;28;45519;-68
2023/07/20 07:20:36;;;;;;;;;5.75;4.25;;;;;24.54;46.20;101178.94;4957994;28;45375;-68
2023/07/20 07:23:02;;;;;;;;;5.00;5.00;;;;;24.57;45.56;101192.19;4958186;28;45491;-65
2023/07/20 07:25:28;;;;;;;;;5.75;3.50;;;;;24.57;45.62;101197.53;4957713;28;46016;-66
2023/07/20 07:27:55;;;;;;;;;5.75;4.50;;;;;24.57;45.78;101191.31;4953547;28;45243;-69
2023/07/20 07:30:21;;;;;;;;;4.50;3.50;;;;;24.58;45.55;101193.03;4949840;28;45586;-66
2023/07/20 07:32:47;;;;;;;;;4.50;3.50;;;;;24.46;45.59;101184.66;4958285;28;45292;-68
2023/07/20 07:35:15;;;;;;;;;3.50;3.25;;;;;24.59;45.81;101189.44;4970853;28;46655;-68
2023/07/20 07:37:41;;;;;;;;;4.00;3.00;;;;;24.60;45.38;101185.81;4957121;28;45373;-66
2023/07/20 07:40:08;;;;;;;;;3.00;3.00;;;;;24.64;45.74;101182.03;4957828;28;45307;-64
2023/07/20 07:42:33;;;;;;;;;2.25;2.25;;;;;24.72;45.77;101188.72;4944618;28;45409;-64
2023/07/20 07:44:59;;;;;;;;;5.00;5.00;;;;;24.74;45.03;101183.31;4958419;28;45691;-65
2023/07/20 07:47:24;;;;;;;;;5.00;5.00;;;;;24.73;45.00;101181.59;4958572;28;45460;-65
2023/07/20 07:49:50;;;;;;;;;4.00;4.00;;;;;24.86;45.32;101192.53;4957914;28;45452;-64
2023/07/20 07:52:16;;;;;;;;;4.00;4.00;;;;;24.89;45.05;101190.59;4958022;28;45356;-66
2023/07/20 07:54:42;;;;;;;;;3.25;3.25;;;;;24.81;44.53;101175.84;4955779;28;46799;-64
2023/07/20 07:57:08;;;;;;;;;4.25;4.25;;;;;24.89;45.23;101189.69;4956144;28;45587;-64
2023/07/20 07:59:36;;;;;;;;;5.75;4.25;;;;;24.86;45.57;101180.00;4972553;28;45440;-65
2023/07/20 08:02:04;;;;;;;;;4.00;4.00;;;;;24.81;45.94;101190.09;4956586;28;45469;-65
2023/07/20 08:04:30;;;;;;;;;5.00;4.75;;;;;24.80;45.05;101180.34;4958126;28;46558;-64
2023/07/20 08:06:55;;;;;;;;;4.25;4.25;;;;;24.77;45.30;101180.47;4957886;28;45499;-66
2023/07/20 08:09:21;;;;;;;;;4.33;4.33;;;;;24.69;45.28;101185.34;4957668;28;45398;-66
2023/07/20 08:11:48;;;;;;;;;5.00;4.33;;;;;24.60;45.86;101183.13;4956520;28;45571;-63
2023/07/20 08:14:13;;;;;;;;;4.67;3.67;;;;;24.72;45.93;101185.19;4972351;28;45931;-64
2023/07/20 08:16:39;;;;;;;;;3.75;3.75;;;;;24.87;45.48;101184.44;4964390;28;45277;-64
2023/07/20 08:19:05;;;;;;;;;7.00;6.00;;;;;24.91;45.42;101175.28;4957681;28;45293;-65
2023/07/20 08:21:30;;;;;;;;;4.33;4.33;;;;;25.08;45.63;101179.78;4957784;28;45375;-63
2023/07/20 08:23:56;;;;;;;;;5.00;4.33;;;;;25.14;44.49;101163.38;4957876;28;45489;-64
2023/07/20 08:26:22;;;;;;;;;3.00;3.00;;;;;25.24;44.29;101161.09;4967136;28;45526;-64
2023/07/20 08:28:48;;;;;;;;;3.25;3.25;;;;;25.36;43.36;101171.19;4957305;28;45455;-63
2023/07/20 08:31:14;;;;;;;;;4.50;4.00;;;;;25.50;43.18;101172.28;4961871;28;45412;-64
2023/07/20 08:33:40;;;;;;;;;3.00;2.00;;;;;25.58;42.89;101160.19;4967418;28;45303;-64
2023/07/20 08:36:05;;;;;;;;;3.75;3.00;;;;;25.67;43.24;101169.53;4967688;28;45488;-65
2023/07/20 08:38:31;;;;;;;;;5.25;3.00;;;;;25.77;42.06;101170.78;4957157;28;45221;-64
2023/07/20 08:40:59;;;;;;;;;4.00;4.00;;;;;25.75;41.60;101153.03;4957066;28;45454;-64
2023/07/20 08:43:25;;;;;;;;;3.75;3.25;;;;;25.79;40.74;101158.16;4956789;28;45387;-64
2023/07/20 08:45:53;;;;;;;;;2.50;2.00;;;;;25.59;41.32;101150.31;4957091;28;45424;-65
2023/07/20 08:48:21;;;;;;;;;2.00;2.00;;;;;25.65;39.11;101146.41;4968983;28;46021;-64
2023/07/20 08:50:49;;;;;;;;;5.50;2.00;;;;;25.63;38.63;101156.38;4965958;28;45335;-65
2023/07/20 08:53:15;;;;;;;;;1.00;1.00;;;;;25.55;39.69;101164.84;4955894;28;45961;-64
2023/07/20 08:55:44;;;;;;;;;1.75;1.75;;;;;25.60;39.86;101147.56;4957745;28;45409;-66
2023/07/20 08:58:12;;;;;;;;;2.50;2.00;;;;;25.68;40.07;101152.50;4958433;28;45634;-66
2023/07/20 09:00:38;;;;;;;;;5.00;2.00;;;;;25.67;39.95;101148.06;4957785;28;45447;-67
2023/07/20 09:03:04;;;;;;;;;3.75;2.00;;;;;25.76;38.36;101155.63;4958025;28;45504;-66
2023/07/20 09:05:30;;;;;;;;;3.00;1.50;;;;;25.56;38.17;101151.34;4964685;28;45516;-63
2023/07/20 09:07:56;;;;;;;;;3.50;1.75;;;;;25.55;38.11;101154.97;4948492;28;46628;-64
2023/07/20 09:10:22;;;;;;;;;2.00;1.75;;;;;25.69;39.14;101164.09;4956162;28;45452;-64
2023/07/20 09:12:50;;;;;;;;;3.00;1.50;;;;;25.59;38.69;101123.50;4958447;28;45512;-63
2023/07/20 09:15:16;;;;;;;;;3.00;1.75;;;;;25.76;37.79;101142.19;4957338;28;45482;-65
2023/07/20 09:17:49;;;;;;;;;2.00;2.00;;;;;25.93;38.32;101145.81;4962099;28;45475;-66
2023/07/20 09:20:17;;;;;;;;;2.00;2.00;;;;;26.08;37.82;101154.81;4962934;28;45219;-65
2023/07/20 09:22:55;;;;;;;;;1.50;1.50;;;;;25.92;36.93;101133.34;4962927;28;45591;-64
2023/07/20 09:25:20;;;;;;;;;4.00;2.00;;;;;26.03;37.00;101152.41;4974230;28;45494;-66
2023/07/20 09:27:47;;;;;;;;;3.00;3.00;;;;;26.00;36.98;101149.88;4960130;28;45554;-66
2023/07/20 09:30:15;;;;;;;;;2.50;2.00;;;;;25.93;37.24;101154.72;4951117;28;45345;-70
2023/07/20 09:32:43;;;;;;;;;2.00;2.00;;;;;25.90;37.66;101148.66;4960552;28;45461;-67
2023/07/20 09:35:16;;;;;;;;;4.00;3.00;;;;;25.99;37.71;101140.09;4961070;28;45526;-67
2023/07/20 09:37:58;;;;;;;;;2.50;2.00;;;;;25.97;38.08;101144.69;4960199;28;45463;-71
2023/07/20 09:40:25;;;;;;;;;3.00;2.00;;;;;25.96;38.32;101132.19;4960747;28;45488;-66
2023/07/20 09:42:53;;;;;;;;;2.00;2.00;;;;;26.02;37.51;101134.56;4961379;28;45511;-66
2023/07/20 09:45:19;;;;;;;;;2.00;2.00;;;;;26.07;37.74;101132.47;4976703;28;45333;-67
2023/07/20 09:47:45;;;;;;;;;3.00;2.00;;;;;26.20;37.64;101143.41;4973031;28;45582;-68
2023/07/20 09:50:10;;;;;;;;;1.25;1.25;;;;;26.23;36.75;101133.34;4971144;28;45392;-68
2023/07/20 09:52:45;;;;;;;;;1.00;1.00;;;;;26.30;36.17;101131.16;4953773;28;46119;-67
2023/07/20 09:55:18;;;;;;;;;2.25;2.00;;;;;26.13;36.16;101104.44;4951048;28;45480;-67
2023/07/20 09:57:48;;;;;;;;;2.00;2.00;;;;;26.20;36.51;101132.66;4954268;28;45436;-68
2023/07/20 10:00:18;;;;;;;;;2.00;2.00;;;;;25.95;35.73;101131.34;4958146;28;45459;-69
2023/07/20 10:02:45;;;;;;;;;4.50;2.75;;;;;25.95;36.84;101109.88;4943445;28;46566;-69
2023/07/20 10:05:14;;;;;;;;;3.00;3.00;;;;;26.23;35.40;101119.06;4968893;28;45492;-70
2023/07/20 10:07:46;;;;;;;;;2.50;2.50;;;;;26.19;35.27;101122.84;4970778;28;45428;-68
2023/07/20 10:10:14;;;;;;;;;3.75;3.50;;;;;26.23;35.37;101100.25;4963673;28;45595;-67
2023/07/20 10:12:41;;;;;;;;;3.00;3.00;;;;;26.41;35.59;101120.69;4964166;28;45611;-67
2023/07/20 10:15:40;;;;;;;;;2.00;2.00;;;;;26.38;35.55;101110.09;4968986;28;45393;-67
2023/07/20 10:18:25;;;;;;;;;5.00;3.25;;;;;26.40;36.20;101110.88;4970357;28;45481;-67
2023/07/20 10:20:54;;;;;;;;;3.50;3.00;;;;;26.50;36.46;101102.28;4957064;28;45637;-65
2023/07/20 10:23:21;;;;;;;;;3.00;2.00;;;;;26.71;35.25;101116.28;4962691;28;46748;-66
2023/07/20 10:25:48;;;;;;;;;3.00;2.00;;;;;26.75;35.10;101110.66;4966519;28;45265;-66
2023/07/20 10:28:14;;;;;;;;;3.50;3.50;;;;;26.77;35.51;101107.88;4954910;28;45558;-65
2023/07/20 10:30:41;;;;;;;;;2.25;2.25;;;;;26.68;35.07;101098.53;4952931;28;45382;-67
2023/07/20 10:33:12;;;;;;;;;3.00;2.50;;;;;26.42;34.96;101084.78;4960064;28;45516;-66
2023/07/20 10:36:00;;;;;;;;;3.50;3.00;;;;;26.42;35.38;101084.78;4955397;28;45536;-67
2023/07/20 10:38:47;;;;;;;;;2.00;2.00;;;;;26.43;35.29;101082.97;4956751;28;45502;-65
2023/07/20 10:41:33;;;;;;;;;1.50;1.50;;;;;26.44;35.05;101080.19;4970762;28;45491;-66
2023/07/20 10:44:04;;;;;;;;;2.50;2.50;;;;;26.54;34.04;101082.38;4951106;28;45437;-67
2023/07/20 10:46:38;;;;;;;;;5.00;2.00;;;;;26.67;34.41;101088.72;4958753;28;45377;-65
2023/07/20 10:49:07;;;;;;;;;4.00;2.00;;;;;26.68;33.58;101068.13;4949483;28;45508;-66
2023/07/20 10:51:47;;;;;;;;;2.00;2.00;;;;;26.83;33.90;101077.94;4943814;28;45461;-69
2023/07/20 10:54:16;;;;;;;;;2.00;2.00;;;;;26.94;33.03;101088.03;4948741;28;45315;-69
2023/07/20 10:56:42;;;;;;;;;2.50;2.00;;;;;26.92;33.10;101069.31;4940038;28;45511;-70
2023/07/20 10:59:27;;;;;;;;;2.00;2.00;;;;;26.98;32.07;101071.63;4946936;28;45479;-67
2023/07/20 11:02:01;;;;;;;;;3.25;2.00;;;;;26.88;32.47;101065.06;4930659;28;45581;-70
2023/07/20 11:04:43;;;;;;;;;2.00;2.00;;;;;26.92;33.38;101082.75;4938797;28;45445;-69
2023/07/20 11:07:10;;;;;;;;;3.00;3.00;;;;;27.01;32.94;101084.03;4955338;28;45840;-69
2023/07/20 11:09:42;;;;;;;;;4.75;3.00;;;;;27.04;32.23;101073.94;4957800;28;45484;-71
2023/07/20 11:12:11;;;;;;;;;2.00;2.00;;;;;27.07;32.29;101073.75;4962877;28;45352;-70
2023/07/20 11:14:53;;;;;;;;;3.00;3.00;;;;;27.19;32.48;101074.84;4960026;28;45518;-72
2023/07/20 11:17:22;;;;;;;;;4.00;3.00;;;;;27.40;31.99;101072.63;4963430;28;45619;-71
2023/07/20 11:19:49;;;;;;;;;2.00;2.00;;;;;27.38;32.04;101057.53;4945737;28;45392;-71
2023/07/20 11:22:17;;;;;;;;;3.25;2.75;;;;;27.64;32.27;101075.56;4952710;28;45497;-71
2023/07/20 11:24:43;;;;;;;;;3.50;3.50;;;;;27.83;32.00;101071.72;4945812;28;45533;-70
2023/07/20 11:27:12;;;;;;;;;3.50;3.00;;;;;27.95;30.24;101064.66;4949918;28;45547;-68